Time;durP1;ratioP1;P1;durP2;ratioP2;P2;SDS_P1;SDS_P2;PMS_P1;PMS_P2;Temp;Humidity;BMP_temperature;BMP_pressure;BME280_temperature;BME280_humidity;BME280_pressure;Samples;Min_cycle;Max_cycle;Signal;HPM_P1;HPM_P2
2021/11/10 00:00:21;;;;;;;30.65;14.43;;;;;;;11.83;58.94;101947.78;5048795;28;20068;-64
2021/11/10 00:02:48;;;;;;;29.38;13.32;;;;;;;11.63;59.55;101956.22;5052784;28;20048;-61
2021/11/10 00:05:17;;;;;;;28.15;14.35;;;;;;;11.64;59.46;101952.38;5053881;28;20059;-62
2021/11/10 00:07:45;;;;;;;27.42;14.25;;;;;;;11.90;59.35;101937.22;5052524;28;20550;-61
2021/11/10 00:10:13;;;;;;;24.40;12.68;;;;;;;12.13;59.20;101938.34;5053962;28;20056;-62
2021/11/10 00:12:41;;;;;;;24.00;12.55;;;;;;;11.81;59.07;101944.47;5053983;28;20067;-62
2021/11/10 00:15:09;;;;;;;26.98;13.50;;;;;;;11.75;58.82;101929.06;5053006;28;20049;-62
2021/11/10 00:17:37;;;;;;;26.48;13.55;;;;;;;11.74;58.49;101932.13;5065885;28;20041;-63
2021/11/10 00:20:09;;;;;;;25.27;12.43;;;;;;;11.60;59.35;101936.66;5052818;28;20056;-62
2021/11/10 00:22:38;;;;;;;28.00;13.00;;;;;;;11.64;59.23;101933.06;5049757;28;20057;-63
2021/11/10 00:25:06;;;;;;;28.83;11.73;;;;;;;11.70;59.10;101931.09;5054314;28;20053;-63
2021/11/10 00:27:33;;;;;;;26.73;12.75;;;;;;;11.62;59.21;101928.91;5052971;28;20569;-63
2021/11/10 00:30:00;;;;;;;26.10;12.10;;;;;;;12.02;58.32;101914.72;5053258;28;20436;-63
2021/11/10 00:32:27;;;;;;;23.70;11.73;;;;;;;11.73;58.95;101898.22;5056135;28;20045;-63
2021/11/10 00:34:55;;;;;;;25.13;12.98;;;;;;;11.72;59.01;101899.31;5039929;28;20499;-63
2021/11/10 00:37:23;;;;;;;25.40;12.43;;;;;;;11.57;59.93;101906.88;5057633;28;20364;-63
2021/11/10 00:39:50;;;;;;;28.15;12.57;;;;;;;11.57;59.60;101920.69;5056652;28;20117;-62
2021/11/10 00:42:17;;;;;;;23.13;11.25;;;;;;;11.77;59.03;101924.09;5068695;28;20049;-63
2021/11/10 00:44:45;;;;;;;23.00;11.15;;;;;;;11.48;59.24;101914.97;5058653;28;20065;-63
2021/11/10 00:47:12;;;;;;;25.15;11.88;;;;;;;11.50;59.13;101912.75;5057232;28;20112;-63
2021/11/10 00:49:39;;;;;;;21.38;11.45;;;;;;;11.57;59.47;101909.66;5057442;28;20044;-63
2021/11/10 00:52:07;;;;;;;23.60;12.30;;;;;;;11.54;59.27;101902.75;5054945;28;20107;-64
2021/11/10 00:54:34;;;;;;;25.10;12.15;;;;;;;11.59;59.65;101908.25;5057135;28;20507;-63
2021/11/10 00:57:01;;;;;;;34.17;13.27;;;;;;;11.43;59.85;101901.22;5055805;28;20057;-63
2021/11/10 00:59:29;;;;;;;25.77;12.30;;;;;;;11.32;60.00;101905.19;5056720;28;20056;-63
2021/11/10 01:01:56;;;;;;;22.23;11.65;;;;;;;11.36;59.81;101889.72;5057350;28;20055;-64
2021/11/10 01:04:24;;;;;;;24.42;12.18;;;;;;;11.43;60.13;101886.59;5057370;28;20517;-63
2021/11/10 01:06:51;;;;;;;26.42;12.23;;;;;;;11.33;60.00;101885.59;5055419;28;20045;-63
2021/11/10 01:09:19;;;;;;;21.98;11.35;;;;;;;11.29;60.12;101868.00;5043967;28;20042;-62
2021/11/10 01:11:47;;;;;;;22.00;11.77;;;;;;;11.44;59.99;101866.19;5066598;28;20069;-63
2021/11/10 01:14:15;;;;;;;21.98;10.95;;;;;;;11.34;60.57;101865.19;5055378;28;20059;-63
2021/11/10 01:16:47;;;;;;;20.63;10.52;;;;;;;11.25;59.97;101866.09;5049716;28;20056;-63
2021/11/10 01:19:20;;;;;;;22.95;10.32;;;;;;;11.40;60.04;101860.44;5042258;28;20056;-63
2021/11/10 01:21:47;;;;;;;21.13;10.30;;;;;;;11.42;59.80;101865.66;5058813;28;20060;-63
2021/11/10 01:24:15;;;;;;;24.90;11.20;;;;;;;11.40;60.10;101865.97;5061377;28;20404;-64
2021/11/10 01:26:42;;;;;;;18.35;10.48;;;;;;;11.68;59.23;101864.31;5056428;28;20055;-62
2021/11/10 01:29:10;;;;;;;26.02;10.98;;;;;;;11.58;59.36;101879.00;5054981;28;20053;-63
2021/11/10 01:31:38;;;;;;;19.38;9.80;;;;;;;11.49;59.72;101880.75;5055543;28;20515;-63
2021/11/10 01:34:08;;;;;;;25.42;10.95;;;;;;;11.75;59.68;101873.88;5057011;28;20056;-63
2021/11/10 01:36:40;;;;;;;22.92;10.45;;;;;;;11.85;58.79;101878.47;5052748;28;20064;-62
2021/11/10 01:39:09;;;;;;;19.88;9.38;;;;;;;11.38;59.28;101876.47;5063327;28;20411;-62
2021/11/10 01:41:43;;;;;;;20.58;9.85;;;;;;;11.47;60.20;101879.41;5055083;28;20144;-63
2021/11/10 01:44:17;;;;;;;21.25;10.30;;;;;;;11.61;59.04;101880.38;5057095;28;20053;-64
2021/11/10 01:46:48;;;;;;;19.15;10.32;;;;;;;11.53;59.29;101878.22;5037978;28;20049;-64
2021/11/10 01:49:16;;;;;;;19.58;10.85;;;;;;;11.40;60.06;101878.91;5047925;28;20044;-63
2021/11/10 01:51:48;;;;;;;24.08;10.18;;;;;;;11.61;60.22;101872.88;5055276;28;20048;-64
2021/11/10 01:54:21;;;;;;;22.60;10.20;;;;;;;11.40;60.37;101865.97;5062386;28;20083;-63
2021/11/10 01:56:49;;;;;;;27.88;10.48;;;;;;;11.52;60.03;101863.63;5050724;28;20464;-61
2021/11/10 01:59:43;;;;;;;22.55;10.30;;;;;;;11.38;60.29;101875.63;5056312;28;20049;-63
2021/11/10 02:02:21;;;;;;;19.10;9.45;;;;;;;11.27;59.95;101877.66;5053714;28;20053;-63
2021/11/10 02:04:56;;;;;;;19.20;9.57;;;;;;;11.22;59.99;101862.00;5044497;28;20606;-62
2021/11/10 02:07:29;;;;;;;21.77;9.90;;;;;;;11.18;60.04;101869.19;5068373;28;20049;-61
2021/11/10 02:09:57;;;;;;;21.92;9.85;;;;;;;11.35;59.90;101877.84;5038567;28;20530;-62
2021/11/10 02:12:24;;;;;;;18.40;9.05;;;;;;;11.58;59.34;101878.16;5055775;28;20057;-62
2021/11/10 02:14:54;;;;;;;20.23;9.60;;;;;;;11.55;59.45;101873.25;5035743;28;20061;-62
2021/11/10 02:17:24;;;;;;;;;;;;;;;11.37;59.71;101868.47;5054863;28;20053;-62
2021/11/10 02:19:55;;;;;;;18.15;9.32;;;;;;;11.33;59.87;101857.19;5054497;28;19936;-61
2021/11/10 02:22:31;;;;;;;18.80;9.90;;;;;;;11.66;59.28;101858.25;5061097;28;20040;-61
2021/11/10 02:25:01;;;;;;;26.33;9.40;;;;;;;11.44;58.94;101861.47;5056177;28;20152;-61
2021/11/10 02:27:35;;;;;;;;;;;;;;;11.33;60.00;101866.28;5055232;28;20053;-62
2021/11/10 02:30:17;;;;;;;22.50;10.68;;;;;;;11.11;61.30;101859.59;5038593;28;19920;-63
2021/11/10 02:32:50;;;;;;;22.65;10.07;;;;;;;11.12;61.83;101853.78;5051876;28;20049;-62
2021/11/10 02:35:22;;;;;;;22.27;9.48;;;;;;;11.16;60.34;101848.50;5069596;28;20526;-60
2021/11/10 02:37:52;;;;;;;19.75;9.55;;;;;;;11.22;60.24;101850.97;5063449;28;20068;-62
2021/11/10 02:40:20;;;;;;;18.85;9.63;;;;;;;11.37;60.08;101838.13;5059871;28;20060;-62
2021/11/10 02:42:49;;;;;;;23.38;9.85;;;;;;;11.16;60.00;101835.56;5068214;28;20049;-61
2021/11/10 02:45:17;;;;;;;18.45;9.68;;;;;;;11.28;60.11;101824.97;5055171;28;20403;-63
2021/11/10 02:47:44;;;;;;;21.88;10.15;;;;;;;11.33;60.89;101835.94;5068053;28;20142;-62
2021/11/10 02:50:11;;;;;;;20.15;9.30;;;;;;;11.17;60.86;101837.22;5055072;28;20147;-62
2021/11/10 02:52:39;;;;;;;18.30;8.23;;;;;;;10.97;61.11;101842.91;5053289;28;20056;-61
2021/11/10 02:55:07;;;;;;;18.50;9.07;;;;;;;11.06;61.17;101832.06;5055360;28;20037;-62
2021/11/10 02:57:35;;;;;;;18.08;8.82;;;;;;;11.00;60.58;101827.72;5065208;28;20049;-63
2021/11/10 03:00:07;;;;;;;23.00;9.52;;;;;;;10.93;60.58;101825.28;5036765;28;20361;-63
2021/11/10 03:02:39;;;;;;;18.25;8.70;;;;;;;11.03;60.64;101824.38;5046426;28;20532;-62
2021/11/10 03:05:08;;;;;;;19.95;8.98;;;;;;;11.26;60.80;101824.41;5037296;28;20479;-63
2021/11/10 03:07:36;;;;;;;23.33;9.73;;;;;;;11.20;59.54;101817.31;5055522;28;20060;-63
2021/11/10 03:10:05;;;;;;;17.98;8.75;;;;;;;10.97;60.14;101826.34;5053365;28;20519;-63
2021/11/10 03:12:35;;;;;;;14.93;7.95;;;;;;;11.02;60.28;101828.22;5037043;28;20053;-62
2021/11/10 03:15:03;;;;;;;22.33;9.97;;;;;;;11.21;61.32;101812.59;5054108;28;20048;-62
2021/11/10 03:17:32;;;;;;;18.13;9.40;;;;;;;11.26;59.97;101816.16;5053368;28;20052;-63
2021/11/10 03:20:06;;;;;;;18.50;9.13;;;;;;;11.05;60.34;101822.97;5046052;28;20052;-63
2021/11/10 03:22:38;;;;;;;20.38;9.48;;;;;;;10.97;60.63;101831.03;5053804;28;20783;-63
2021/11/10 03:25:06;;;;;;;18.70;9.35;;;;;;;11.06;60.82;101823.78;5052043;28;20053;-63
2021/11/10 03:27:34;;;;;;;19.45;9.07;;;;;;;11.07;60.11;101831.78;5051358;28;20083;-63
2021/11/10 03:30:06;;;;;;;19.40;8.70;;;;;;;11.07;60.52;101833.72;5055522;28;20068;-64
2021/11/10 03:32:45;;;;;;;18.23;9.10;;;;;;;11.11;60.62;101832.03;5052118;28;20052;-63
2021/11/10 03:35:15;;;;;;;17.30;8.82;;;;;;;11.01;60.37;101823.84;5052976;28;21971;-62
2021/11/10 03:37:44;;;;;;;17.05;9.15;;;;;;;11.06;60.66;101841.16;5053406;28;20049;-62
2021/11/10 03:40:13;;;;;;;20.70;9.10;;;;;;;10.90;60.50;101855.34;5038946;28;20056;-63
2021/11/10 03:42:46;;;;;;;18.95;8.95;;;;;;;11.03;60.67;101847.28;5053617;28;20055;-63
2021/11/10 03:45:15;;;;;;;20.90;9.48;;;;;;;11.09;59.97;101829.56;5069539;28;20045;-62
2021/11/10 03:47:43;;;;;;;19.10;9.60;;;;;;;11.10;61.81;101827.63;5053090;28;20522;-62
2021/11/10 03:50:11;;;;;;;20.70;9.60;;;;;;;10.92;60.67;101829.16;5052553;28;20388;-63
2021/11/10 03:52:38;;;;;;;21.98;10.20;;;;;;;10.58;61.49;101830.25;5049882;28;20065;-62
2021/11/10 03:55:07;;;;;;;22.77;11.18;;;;;;;10.94;60.53;101832.47;5050687;28;20049;-64
2021/11/10 03:57:40;;;;;;;30.55;12.50;;;;;;;10.99;60.92;101834.34;5053372;28;20049;-64
2021/11/10 04:00:08;;;;;;;21.48;13.23;;;;;;;11.19;61.21;101834.97;5053177;28;20051;-65
2021/11/10 04:02:45;;;;;;;23.45;12.70;;;;;;;10.97;60.90;101840.16;5039291;28;20052;-66
2021/11/10 04:05:25;;;;;;;29.73;14.20;;;;;;;10.83;62.27;101852.94;5048742;28;20050;-62
2021/11/10 04:07:54;;;;;;;24.73;14.13;;;;;;;10.67;61.53;101864.38;5053013;28;20350;-64
2021/11/10 04:10:22;;;;;;;24.33;12.45;;;;;;;10.59;61.78;101890.59;5069537;28;20287;-62
2021/11/10 04:12:50;;;;;;;22.13;13.43;;;;;;;10.44;62.77;101915.47;5053605;28;20084;-65
2021/11/10 04:15:20;;;;;;;26.52;15.63;;;;;;;10.81;61.79;101909.47;5052293;28;20060;-63
2021/11/10 04:17:47;;;;;;;29.75;16.02;;;;;;;10.88;62.11;101909.97;5066833;28;20053;-62
2021/11/10 04:20:15;;;;;;;32.17;15.43;;;;;;;11.04;61.71;101903.22;5052576;28;20076;-64
2021/11/10 04:22:43;;;;;;;32.30;16.58;;;;;;;11.05;60.72;101893.84;5052449;28;20049;-62
2021/11/10 04:25:12;;;;;;;32.70;16.65;;;;;;;10.73;61.83;101888.84;5050183;28;20045;-63
2021/11/10 04:27:40;;;;;;;32.10;17.35;;;;;;;11.14;61.04;101897.63;5049445;28;20068;-63
2021/11/10 04:30:08;;;;;;;32.85;16.58;;;;;;;11.25;61.24;101879.88;5068088;28;20072;-63
2021/11/10 04:32:37;;;;;;;34.70;17.98;;;;;;;11.03;60.59;101874.84;5052016;28;20289;-63
2021/11/10 04:35:07;;;;;;;29.90;16.30;;;;;;;11.38;60.35;101878.38;5036568;28;20053;-62
2021/11/10 04:37:44;;;;;;;31.23;16.27;;;;;;;11.13;59.45;101884.94;5036038;28;20076;-63
2021/11/10 04:40:12;;;;;;;26.50;15.68;;;;;;;11.12;59.79;101870.31;5067692;28;20049;-63
2021/11/10 04:42:41;;;;;;;32.17;16.98;;;;;;;11.17;59.94;101872.25;5074207;28;20066;-64
2021/11/10 04:45:25;;;;;;;30.73;16.00;;;;;;;11.08;59.84;101877.56;5042283;28;20496;-64
2021/11/10 04:47:53;;;;;;;34.10;17.55;;;;;;;11.10;61.33;101880.03;5052754;28;20041;-62
2021/11/10 04:50:22;;;;;;;28.20;16.27;;;;;;;10.69;59.99;101875.91;5047462;28;20045;-63
2021/11/10 04:52:56;;;;;;;30.15;15.90;;;;;;;11.26;59.33;101876.03;5052257;28;20053;-63
2021/11/10 04:55:26;;;;;;;28.70;15.07;;;;;;;11.42;58.89;101871.97;5051145;28;20053;-63
2021/11/10 04:57:54;;;;;;;30.77;16.33;;;;;;;11.18;59.53;101874.69;5054127;28;20060;-63
2021/11/10 05:00:21;;;;;;;26.77;15.35;;;;;;;10.83;59.96;101874.16;5060975;28;20307;-62
2021/11/10 05:02:52;;;;;;;30.75;16.70;;;;;;;10.56;61.80;101862.78;5036063;28;20033;-63
2021/11/10 05:05:22;;;;;;;27.42;15.35;;;;;;;10.76;60.85;101854.38;5050284;28;20072;-63
2021/11/10 05:07:50;;;;;;;28.75;15.07;;;;;;;10.68;60.88;101850.31;5062542;28;20405;-62
2021/11/10 05:10:18;;;;;;;30.02;16.90;;;;;;;10.60;60.95;101853.66;5066381;28;20068;-63
2021/11/10 05:12:51;;;;;;;30.73;16.52;;;;;;;10.58;62.04;101852.31;5044747;28;20045;-63
2021/11/10 05:15:18;;;;;;;31.05;17.48;;;;;;;11.08;60.50;101851.91;5066873;28;20056;-63
2021/11/10 05:17:46;;;;;;;31.52;15.98;;;;;;;10.64;61.00;101840.97;5055872;28;20471;-64
2021/11/10 05:20:18;;;;;;;24.25;14.70;;;;;;;10.77;61.12;101833.97;5063649;28;20052;-63
2021/11/10 05:22:47;;;;;;;33.80;15.90;;;;;;;10.93;61.30;101810.69;5055427;28;20076;-63
2021/11/10 05:25:15;;;;;;;31.60;17.00;;;;;;;10.68;60.99;101822.75;5056173;28;20060;-63
2021/11/10 05:27:42;;;;;;;36.83;17.00;;;;;;;10.84;60.83;101835.31;5057006;28;20049;-62
2021/11/10 05:30:11;;;;;;;31.90;16.15;;;;;;;11.17;59.84;101825.34;5056853;28;20049;-63
2021/11/10 05:32:42;;;;;;;27.92;16.58;;;;;;;10.89;60.19;101820.66;5033335;28;20048;-63
2021/11/10 05:35:10;;;;;;;27.70;15.50;;;;;;;10.97;60.55;101829.13;5056950;28;20048;-63
2021/11/10 05:37:37;;;;;;;32.17;16.70;;;;;;;10.98;60.16;101822.47;5056419;28;20053;-63
2021/11/10 05:40:09;;;;;;;26.23;15.05;;;;;;;10.97;60.04;101822.78;5064322;28;20048;-63
2021/11/10 05:42:37;;;;;;;31.05;15.77;;;;;;;11.39;59.87;101825.69;5055500;28;20052;-63
2021/11/10 05:45:06;;;;;;;27.50;15.70;;;;;;;11.03;60.29;101816.94;5056655;28;20044;-67
2021/11/10 05:47:34;;;;;;;24.40;14.95;;;;;;;10.87;60.59;101815.44;5054140;28;20606;-63
2021/11/10 05:50:04;;;;;;;25.30;15.50;;;;;;;10.91;60.93;101808.19;5056496;28;20092;-63
2021/11/10 05:52:32;;;;;;;29.67;16.60;;;;;;;10.80;60.79;101801.16;5066685;28;20064;-63
2021/11/10 05:54:59;;;;;;;28.02;14.98;;;;;;;10.82;60.46;101798.94;5056290;28;20412;-62
2021/11/10 05:57:27;;;;;;;27.88;15.15;;;;;;;10.83;60.89;101808.84;5056569;28;20067;-63
2021/11/10 05:59:54;;;;;;;29.27;15.15;;;;;;;11.10;59.50;101806.41;5054951;28;20072;-63
2021/11/10 06:02:22;;;;;;;30.02;15.02;;;;;;;10.92;60.65;101815.38;5055469;28;20392;-62
2021/11/10 06:04:49;;;;;;;26.00;14.77;;;;;;;10.86;60.45;101813.75;5054412;28;20060;-63
2021/11/10 06:07:20;;;;;;;27.83;14.73;;;;;;;10.84;60.76;101815.19;5056321;28;20045;-63
2021/11/10 06:09:47;;;;;;;28.55;15.07;;;;;;;10.81;60.75;101822.06;5056711;28;20061;-63
2021/11/10 06:12:14;;;;;;;27.73;14.23;;;;;;;10.93;60.68;101833.56;5053569;28;20049;-62
2021/11/10 06:14:42;;;;;;;22.05;13.63;;;;;;;11.06;60.49;101854.97;5056037;28;20075;-62
2021/11/10 06:17:09;;;;;;;28.88;15.10;;;;;;;10.95;60.15;101866.34;5055462;28;20056;-63
2021/11/10 06:19:36;;;;;;;24.05;13.15;;;;;;;11.18;59.79;101860.91;5055817;28;20119;-64
2021/11/10 06:22:04;;;;;;;24.10;12.90;;;;;;;11.02;59.99;101862.16;5054254;28;20407;-62
2021/11/10 06:24:31;;;;;;;27.42;13.77;;;;;;;11.07;60.46;101864.84;5055964;28;20041;-62
2021/11/10 06:26:59;;;;;;;28.70;13.93;;;;;;;10.92;60.01;101877.94;5066368;28;20056;-64
2021/11/10 06:29:26;;;;;;;28.63;14.93;;;;;;;10.96;60.97;101879.03;5055808;28;20044;-63
2021/11/10 06:31:53;;;;;;;24.80;13.82;;;;;;;10.83;60.49;101879.66;5055186;28;20057;-63
2021/11/10 06:34:21;;;;;;;27.50;14.18;;;;;;;11.22;60.40;101886.81;5056128;28;20041;-63
2021/11/10 06:36:48;;;;;;;23.75;14.48;;;;;;;11.04;60.10;101887.50;5055489;28;20053;-64
2021/11/10 06:39:16;;;;;;;28.67;15.77;;;;;;;11.09;59.86;101895.72;5055967;28;20053;-64
2021/11/10 06:41:44;;;;;;;26.25;13.90;;;;;;;10.94;60.44;101889.50;5055164;28;20049;-63
2021/11/10 06:44:12;;;;;;;29.23;14.20;;;;;;;10.89;60.11;101889.56;5055576;28;20059;-62
2021/11/10 06:46:39;;;;;;;29.75;14.50;;;;;;;10.97;60.63;101908.22;5049119;28;20053;-62
2021/11/10 06:49:06;;;;;;;26.20;12.70;;;;;;;10.92;60.70;101922.06;5055551;28;20063;-63
2021/11/10 06:51:33;;;;;;;28.17;13.35;;;;;;;10.67;61.44;101941.53;5055207;28;20041;-62
2021/11/10 06:54:01;;;;;;;28.35;14.82;;;;;;;10.74;61.05;101942.03;5055493;28;20052;-62
2021/11/10 06:56:28;;;;;;;26.48;14.02;;;;;;;10.79;60.80;101953.81;5055112;28;20053;-62
2021/11/10 06:58:57;;;;;;;26.90;14.65;;;;;;;10.68;61.58;101952.25;5055502;28;20048;-62
2021/11/10 07:01:25;;;;;;;30.17;14.10;;;;;;;10.81;62.18;101951.63;5055351;28;20408;-61
2021/11/10 07:03:53;;;;;;;25.38;14.43;;;;;;;11.10;60.32;101957.22;5055141;28;20072;-61
2021/11/10 07:06:20;;;;;;;29.65;14.70;;;;;;;10.86;60.46;101959.03;5054702;28;20527;-61
2021/11/10 07:08:47;;;;;;;24.40;14.90;;;;;;;11.03;60.55;101962.25;5053754;28;20048;-62
2021/11/10 07:11:15;;;;;;;28.83;14.32;;;;;;;10.87;60.45;101958.75;5055071;28;20053;-62
2021/11/10 07:13:42;;;;;;;33.25;15.60;;;;;;;11.17;60.24;101955.81;5037316;28;20060;-62
2021/11/10 07:16:10;;;;;;;29.35;15.80;;;;;;;11.01;61.70;101954.25;5054604;28;20045;-65
2021/11/10 07:18:39;;;;;;;31.80;16.17;;;;;;;11.20;60.36;101948.88;5043417;28;20064;-64
2021/11/10 07:21:08;;;;;;;33.45;15.60;;;;;;;10.75;60.75;101940.91;5040805;28;20052;-62
2021/11/10 07:23:35;;;;;;;26.35;15.07;;;;;;;11.22;59.53;101939.22;5053558;28;20037;-64
2021/11/10 07:26:03;;;;;;;31.45;16.08;;;;;;;10.65;59.47;101933.50;5037443;28;20053;-63
2021/11/10 07:28:32;;;;;;;30.02;15.55;;;;;;;10.79;60.53;101945.56;5053891;28;20049;-64
2021/11/10 07:30:59;;;;;;;29.67;15.98;;;;;;;10.96;60.82;101940.50;5059426;28;20048;-63
2021/11/10 07:33:27;;;;;;;25.05;13.52;;;;;;;10.66;60.26;101948.97;5060263;28;20045;-63
2021/11/10 07:35:54;;;;;;;26.83;14.93;;;;;;;10.33;62.31;101949.66;5034064;28;20053;-64
2021/11/10 07:38:24;;;;;;;27.15;14.10;;;;;;;11.10;61.24;101943.44;5047246;28;20048;-64
2021/11/10 07:40:52;;;;;;;;;;;;;;;10.50;61.01;101936.38;5040858;28;20060;-65
2021/11/10 07:43:22;;;;;;;28.55;14.45;;;;;;;10.48;61.43;101922.03;5048928;28;19928;-63
2021/11/10 07:45:55;;;;;;;27.80;15.35;;;;;;;10.66;61.59;101924.16;5055339;28;20056;-62
2021/11/10 07:48:23;;;;;;;26.33;13.82;;;;;;;10.57;61.27;101927.78;5054807;28;20048;-61
2021/11/10 07:50:50;;;;;;;27.73;14.82;;;;;;;10.72;60.46;101917.50;5054828;28;20049;-63
2021/11/10 07:53:17;;;;;;;26.35;14.75;;;;;;;10.60;61.06;101919.78;5054366;28;20045;-63
2021/11/10 07:55:45;;;;;;;27.45;13.98;;;;;;;10.64;61.05;101911.75;5054330;28;20053;-64
2021/11/10 07:58:12;;;;;;;26.25;15.00;;;;;;;11.23;59.90;101932.56;5054650;28;20052;-64
2021/11/10 08:00:40;;;;;;;28.35;15.80;;;;;;;11.03;58.69;101929.97;5054367;28;20048;-64
2021/11/10 08:03:08;;;;;;;31.33;15.23;;;;;;;11.12;58.44;101922.72;5054170;28;20056;-64
2021/11/10 08:05:37;;;;;;;30.42;14.65;;;;;;;11.38;58.19;101919.75;5052998;28;20650;-63
2021/11/10 08:08:04;;;;;;;28.20;14.90;;;;;;;11.34;57.89;101927.78;5054329;28;20052;-64
2021/11/10 08:10:53;;;;;;;29.88;15.77;;;;;;;11.40;57.18;101923.88;5052920;28;20049;-65
2021/11/10 08:13:21;;;;;;;36.30;16.70;;;;;;;11.30;57.68;101933.06;5034551;28;20042;-63
2021/11/10 08:15:50;;;;;;;27.13;15.93;;;;;;;11.14;58.46;101947.28;5053318;28;20056;-64
2021/11/10 08:18:17;;;;;;;28.92;17.52;;;;;;;11.26;58.14;101945.78;5053688;28;20049;-64
2021/11/10 08:20:45;;;;;;;34.85;16.27;;;;;;;11.34;56.88;101934.13;5053591;28;20056;-63
2021/11/10 08:23:18;;;;;;;32.55;17.77;;;;;;;11.24;57.34;101927.88;5054944;28;20079;-64
2021/11/10 08:25:47;;;;;;;31.60;16.38;;;;;;;11.19;57.69;101933.44;5055215;28;20052;-63
2021/11/10 08:28:15;;;;;;;33.10;16.70;;;;;;;11.31;57.49;101931.94;5054661;28;20056;-63
2021/11/10 08:30:42;;;;;;;35.47;17.33;;;;;;;11.06;57.74;101951.47;5056218;28;20068;-63
2021/11/10 08:33:10;;;;;;;40.28;19.92;;;;;;;11.11;57.80;101948.66;5072306;28;20044;-62
2021/11/10 08:35:37;;;;;;;35.97;19.50;;;;;;;11.15;57.61;101944.22;5073175;28;20059;-62
2021/11/10 08:38:04;;;;;;;33.13;16.70;;;;;;;11.06;58.32;101942.34;5057052;28;20041;-63
2021/11/10 08:40:32;;;;;;;29.80;16.83;;;;;;;11.25;57.55;101949.66;5066581;28;20049;-62
2021/11/10 08:43:00;;;;;;;49.95;20.02;;;;;;;11.34;57.38;101950.69;5054647;28;20045;-62
2021/11/10 08:45:32;;;;;;;37.20;19.88;;;;;;;11.31;57.44;101955.97;5054967;28;20045;-62
2021/11/10 08:48:03;;;;;;;35.28;18.17;;;;;;;11.87;56.59;101948.81;5054788;28;20052;-61
2021/11/10 08:50:33;;;;;;;38.30;19.67;;;;;;;11.50;57.08;101956.91;5054930;28;20053;-62
2021/11/10 08:53:02;;;;;;;34.50;18.38;;;;;;;11.50;57.12;101954.16;5058087;28;20060;-63
2021/11/10 08:55:30;;;;;;;33.83;18.00;;;;;;;11.52;57.14;101959.38;5038798;28;20366;-63
2021/11/10 08:57:57;;;;;;;38.25;19.13;;;;;;;11.44;57.14;101951.72;5027895;28;20072;-62
2021/11/10 09:00:28;;;;;;;32.22;18.35;;;;;;;11.41;57.53;101942.06;5058196;28;20526;-63
2021/11/10 09:03:00;;;;;;;32.20;17.60;;;;;;;11.25;57.88;101952.41;5056048;28;20049;-67
2021/11/10 09:05:30;;;;;;;37.10;18.37;;;;;;;11.49;57.79;101959.97;5057267;28;20044;-63
2021/11/10 09:07:57;;;;;;;36.30;18.38;;;;;;;11.83;56.88;101955.22;5059434;28;20123;-63
2021/11/10 09:10:24;;;;;;;46.35;18.00;;;;;;;11.62;56.89;101949.06;5023100;28;20539;-62
2021/11/10 09:12:53;;;;;;;37.03;22.80;;;;;;;11.80;56.89;101956.63;5057974;28;20057;-64
2021/11/10 09:15:22;;;;;;;37.38;19.58;;;;;;;11.78;56.74;101953.34;5058273;28;20045;-62
2021/11/10 09:17:50;;;;;;;43.50;20.33;;;;;;;11.37;57.56;101942.97;5058312;28;20057;-63
2021/11/10 09:20:21;;;;;;;38.88;20.73;;;;;;;11.43;58.14;101934.34;5056898;28;20053;-62
2021/11/10 09:22:54;;;;;;;51.42;20.98;;;;;;;11.92;56.40;101925.88;5055666;28;20053;-61
2021/11/10 09:25:22;;;;;;;;;;;;;;;11.42;57.61;101924.41;5057709;28;20057;-62
2021/11/10 09:27:50;;;;;;;39.22;20.95;;;;;;;11.60;58.13;101917.34;5054534;28;19920;-62
2021/11/10 09:30:19;;;;;;;39.42;20.40;;;;;;;11.75;57.24;101914.47;5037193;28;20033;-63
2021/11/10 09:32:47;;;;;;;39.42;20.58;;;;;;;10.63;60.96;101919.22;5056647;28;20148;-64
2021/11/10 09:35:16;;;;;;;39.78;20.42;;;;;;;11.31;59.46;101911.81;5057290;28;20045;-63
2021/11/10 09:37:44;;;;;;;43.42;20.98;;;;;;;10.98;59.65;101920.91;5056504;28;20053;-63
2021/11/10 09:40:14;;;;;;;37.72;19.88;;;;;;;11.05;60.49;101933.25;5066060;28;20072;-63
2021/11/10 09:42:43;;;;;;;39.03;21.58;;;;;;;11.28;60.00;101937.22;5051269;28;20057;-63
2021/11/10 09:45:14;;;;;;;39.42;21.17;;;;;;;11.51;59.49;101932.88;5037368;28;20045;-63
2021/11/10 09:47:43;;;;;;;36.72;19.65;;;;;;;11.37;59.88;101932.72;5049081;28;20614;-64
2021/11/10 09:50:13;;;;;;;37.78;20.77;;;;;;;11.75;58.36;101936.56;5055311;28;20057;-62
2021/11/10 09:52:40;;;;;;;38.58;22.20;;;;;;;11.49;59.49;101944.19;5056764;28;20056;-62
2021/11/10 09:55:09;;;;;;;38.88;19.77;;;;;;;12.06;58.69;101958.03;5056805;28;20048;-63
2021/11/10 09:57:37;;;;;;;39.90;22.27;;;;;;;12.60;56.75;101967.88;5054703;28;20053;-67
2021/11/10 10:00:09;;;;;;;37.80;23.83;;;;;;;12.32;56.96;101973.19;5056514;28;20052;-63
2021/11/10 10:02:41;;;;;;;35.47;21.08;;;;;;;12.27;57.54;101969.66;5055753;28;20408;-63
2021/11/10 10:05:08;;;;;;;34.78;20.25;;;;;;;12.05;57.18;101966.59;5033791;28;20041;-63
2021/11/10 10:07:36;;;;;;;37.75;20.80;;;;;;;12.19;57.78;101979.41;5038463;28;20059;-63
2021/11/10 10:10:04;;;;;;;38.88;21.20;;;;;;;12.48;57.08;101973.00;5055348;28;20041;-62
2021/11/10 10:12:32;;;;;;;33.40;19.98;;;;;;;12.78;56.28;101973.41;5055140;28;20053;-63
2021/11/10 10:15:03;;;;;;;36.70;20.30;;;;;;;12.61;56.30;101983.31;5033066;28;20045;-66
2021/11/10 10:17:35;;;;;;;29.40;18.13;;;;;;;12.53;56.09;101987.56;5055766;28;20048;-62
2021/11/10 10:20:05;;;;;;;32.20;19.30;;;;;;;12.37;57.04;101981.41;5044576;28;20045;-62
2021/11/10 10:22:33;;;;;;;37.33;19.30;;;;;;;12.85;55.63;101959.22;5049405;28;20053;-62
2021/11/10 10:25:01;;;;;;;35.13;19.08;;;;;;;12.43;56.97;101971.94;5055222;28;20041;-63
2021/11/10 10:27:34;;;;;;;31.73;18.40;;;;;;;12.53;57.05;101959.94;5054966;28;20041;-63
2021/11/10 10:30:23;;;;;;;34.67;18.25;;;;;;;12.42;56.60;101958.41;5055161;28;20049;-63
2021/11/10 10:33:03;;;;;;;36.03;18.13;;;;;;;12.71;56.35;101948.06;5064102;28;20059;-63
2021/11/10 10:35:40;;;;;;;32.13;18.00;;;;;;;12.79;56.16;101941.88;5053589;28;20064;-63
2021/11/10 10:38:10;;;;;;;33.72;20.38;;;;;;;12.95;56.13;101948.84;5051482;28;20045;-65
2021/11/10 10:40:39;;;;;;;34.47;19.42;;;;;;;12.78;55.89;101939.44;5066985;28;20051;-63
2021/11/10 10:43:07;;;;;;;36.40;18.58;;;;;;;12.77;55.87;101946.88;5050646;28;20512;-63
2021/11/10 10:45:38;;;;;;;35.38;20.13;;;;;;;12.89;55.96;101940.91;5069472;28;20056;-63
2021/11/10 10:48:10;;;;;;;37.88;18.70;;;;;;;13.07;55.19;101916.06;5056174;28;20093;-63
2021/11/10 10:50:40;;;;;;;33.72;20.45;;;;;;;12.88;55.46;101919.91;5050829;28;20061;-63
2021/11/10 10:53:12;;;;;;;48.38;21.52;;;;;;;12.94;55.63;101919.53;5054324;28;20049;-63
2021/11/10 10:55:43;;;;;;;41.53;21.30;;;;;;;13.31;54.46;101916.75;5030633;28;20148;-63
2021/11/10 10:58:33;;;;;;;38.03;21.23;;;;;;;13.59;53.72;101906.56;5047095;28;20091;-62
2021/11/10 11:01:17;;;;;;;39.70;22.02;;;;;;;13.60;53.57;101905.44;5052674;28;20045;-64
2021/11/10 11:04:08;;;;;;;41.15;21.90;;;;;;;13.19;53.92;101905.34;5052377;28;20045;-68
2021/11/10 11:06:42;;;;;;;38.38;23.33;;;;;;;13.17;55.59;101902.03;5061532;28;20049;-62
2021/11/10 11:09:15;;;;;;;40.20;23.77;;;;;;;12.68;54.53;101893.38;5055465;28;20071;-63
2021/11/10 11:11:56;;;;;;;38.03;22.90;;;;;;;11.45;57.22;101893.50;5054931;28;20538;-63
2021/11/10 11:14:46;;;;;;;35.63;21.73;;;;;;;11.77;58.69;101902.00;5036314;28;20053;-62
2021/11/10 11:17:22;;;;;;;38.35;21.80;;;;;;;12.28;57.39;101900.28;5053912;28;20052;-63
2021/11/10 11:20:02;;;;;;;42.22;22.38;;;;;;;12.31;58.08;101891.41;5044228;28;20088;-64
2021/11/10 11:22:42;;;;;;;43.85;24.75;;;;;;;12.04;56.66;101882.09;5055192;28;20133;-64